createdAt,value
2023-01-29T00:01:48.391Z,101110.31
2023-01-29T00:04:58.932Z,101112.91
2023-01-29T00:08:05.994Z,101109.78
2023-01-29T00:11:14.999Z,101113.00
2023-01-29T00:14:22.530Z,101118.53
2023-01-29T00:17:32.803Z,101125.13
2023-01-29T00:20:39.593Z,101123.88
2023-01-29T00:23:50.942Z,101121.19
2023-01-29T00:26:58.823Z,101129.66
2023-01-29T00:30:14.137Z,101131.59
2023-01-29T00:33:23.143Z,101140.34
2023-01-29T00:36:34.948Z,101141.63
2023-01-29T00:39:48.167Z,101139.72
2023-01-29T00:43:13.841Z,101141.94
2023-01-29T00:46:19.740Z,101145.72
2023-01-29T00:49:27.845Z,101149.22
2023-01-29T00:52:37.576Z,101147.28
2023-01-29T00:55:48.445Z,101148.13
2023-01-29T00:58:54.994Z,101151.59
2023-01-29T01:02:18.964Z,101154.97
2023-01-29T01:05:27.554Z,101149.25
2023-01-29T01:08:57.724Z,101150.09
2023-01-29T01:12:03.095Z,101146.78
2023-01-29T01:15:07.586Z,101147.72
2023-01-29T01:18:12.612Z,101151.25
2023-01-29T01:21:17.604Z,101146.66
2023-01-29T01:24:24.076Z,101157.31
2023-01-29T01:27:32.184Z,101154.47
2023-01-29T01:30:40.173Z,101163.34
2023-01-29T01:33:45.507Z,101161.03
2023-01-29T01:36:49.783Z,101166.13
2023-01-29T01:40:06.896Z,101160.97
2023-01-29T01:43:13.667Z,101157.81
2023-01-29T01:46:19.068Z,101174.06
2023-01-29T01:49:29.318Z,101176.97
2023-01-29T01:52:39.310Z,101173.38
2023-01-29T01:55:49.817Z,101172.59
2023-01-29T01:59:00.820Z,101170.38
2023-01-29T02:02:29.415Z,101174.69
2023-01-29T02:05:55.994Z,101166.72
2023-01-29T02:09:27.800Z,101168.56
2023-01-29T02:12:35.807Z,101172.78
2023-01-29T02:15:47.186Z,101176.16
2023-01-29T02:18:51.962Z,101178.97
2023-01-29T02:22:13.385Z,101179.78
2023-01-29T02:25:25.130Z,101174.75
2023-01-29T02:28:40.389Z,101187.16
2023-01-29T02:31:52.352Z,101185.31
2023-01-29T02:35:16.846Z,101194.13
2023-01-29T02:38:31.473Z,101188.22
2023-01-29T02:42:01.916Z,101193.50
2023-01-29T02:45:13.226Z,101194.41
2023-01-29T02:48:21.985Z,101198.16
2023-01-29T02:51:42.232Z,101206.09
2023-01-29T02:54:53.658Z,101207.09
2023-01-29T02:58:15.149Z,101204.56
2023-01-29T03:01:31.153Z,101217.66
2023-01-29T03:04:40.702Z,101207.31
2023-01-29T03:07:55.080Z,101213.59
2023-01-29T03:11:04.132Z,101211.91
2023-01-29T03:14:14.202Z,101208.81
2023-01-29T03:17:24.963Z,101212.94
2023-01-29T03:20:37.099Z,101215.44
2023-01-29T03:24:03.505Z,101216.00
2023-01-29T03:27:30.632Z,101217.81
2023-01-29T03:30:59.600Z,101213.13
2023-01-29T03:34:18.092Z,101229.84
2023-01-29T03:37:51.350Z,101225.47
2023-01-29T03:41:02.393Z,101226.34
2023-01-29T03:44:31.569Z,101222.59
2023-01-29T03:47:45.991Z,101238.78
2023-01-29T03:51:02.450Z,101241.09
2023-01-29T03:54:12.491Z,101236.69
2023-01-29T03:57:26.937Z,101229.34
2023-01-29T04:00:42.557Z,101225.97
2023-01-29T04:04:10.895Z,101232.81
2023-01-29T04:07:28.289Z,101222.53
2023-01-29T04:10:43.070Z,101221.69
2023-01-29T04:13:49.244Z,101215.63
2023-01-29T04:17:04.946Z,101221.69
2023-01-29T04:20:13.594Z,101227.34
2023-01-29T04:23:26.750Z,101229.63
2023-01-29T04:26:33.473Z,101228.84
2023-01-29T04:29:55.649Z,101220.72
2023-01-29T04:33:22.188Z,101232.91
2023-01-29T04:36:40.777Z,101217.34
2023-01-29T04:39:53.098Z,101219.13
2023-01-29T04:43:11.867Z,101231.00
2023-01-29T04:46:36.404Z,101232.06
2023-01-29T04:49:51.646Z,101231.69
2023-01-29T04:53:07.750Z,101231.03
2023-01-29T04:56:35.717Z,101222.72
2023-01-29T04:59:45.728Z,101243.41
2023-01-29T05:02:55.969Z,101235.53
2023-01-29T05:06:04.988Z,101228.72
2023-01-29T05:09:13.905Z,101226.19
2023-01-29T05:12:23.588Z,101217.75
2023-01-29T05:15:36.981Z,101223.87
2023-01-29T05:18:45.346Z,101232.03
2023-01-29T05:21:53.614Z,101230.09
2023-01-29T05:25:03.222Z,101217.69
2023-01-29T05:28:19.154Z,101214.16
2023-01-29T05:31:24.886Z,101220.19
2023-01-29T05:34:33.399Z,101216.16
2023-01-29T05:37:40.170Z,101220.97
2023-01-29T05:41:05.755Z,101226.19
2023-01-29T05:44:15.728Z,101218.16
2023-01-29T05:47:25.385Z,101227.69
2023-01-29T05:50:34.863Z,101226.25
2023-01-29T05:53:43.848Z,101234.69
2023-01-29T05:56:56.453Z,101226.84
2023-01-29T06:00:07.150Z,101237.53
2023-01-29T06:03:19.504Z,101239.03
2023-01-29T06:06:30.109Z,101241.59
2023-01-29T06:09:35.912Z,101241.34
2023-01-29T06:12:50.127Z,101247.03
2023-01-29T06:15:59.025Z,101240.66
2023-01-29T06:19:07.672Z,101250.50
2023-01-29T06:22:15.934Z,101256.38
2023-01-29T06:25:23.931Z,101262.84
2023-01-29T06:28:35.838Z,101258.94
2023-01-29T06:31:43.846Z,101272.44
2023-01-29T06:34:53.652Z,101276.94
2023-01-29T06:38:02.321Z,101283.94
2023-01-29T06:41:15.985Z,101277.16
2023-01-29T06:44:23.441Z,101292.38
2023-01-29T06:47:31.013Z,101295.56
2023-01-29T06:50:38.005Z,101300.88
2023-01-29T06:53:46.002Z,101300.41
2023-01-29T06:56:53.082Z,101299.72
2023-01-29T07:00:01.513Z,101295.97
2023-01-29T07:03:11.517Z,101301.78
2023-01-29T07:06:19.187Z,101300.94
2023-01-29T07:09:27.178Z,101293.12
2023-01-29T07:12:35.796Z,101296.59
2023-01-29T07:15:44.938Z,101290.34
2023-01-29T07:18:53.905Z,101289.84
2023-01-29T07:22:09.330Z,101290.34
2023-01-29T07:25:18.481Z,101287.06
2023-01-29T07:28:25.767Z,101292.16
2023-01-29T07:31:32.561Z,101282.31
2023-01-29T07:34:43.983Z,101274.28
2023-01-29T07:37:52.165Z,101283.25
2023-01-29T07:41:03.013Z,101282.62
2023-01-29T07:44:15.001Z,101273.94
2023-01-29T07:47:23.118Z,101264.34
2023-01-29T07:50:33.169Z,101265.38
2023-01-29T07:53:44.166Z,101259.31
2023-01-29T07:56:53.735Z,101279.88
2023-01-29T07:59:59.669Z,101272.31
2023-01-29T08:03:10.625Z,101272.91
2023-01-29T08:06:18.857Z,101273.75
2023-01-29T08:09:25.793Z,101279.16
2023-01-29T08:12:36.209Z,101277.37
2023-01-29T08:15:49.826Z,101285.75
2023-01-29T08:18:58.551Z,101283.59
2023-01-29T08:22:06.966Z,101282.19
2023-01-29T08:25:15.308Z,101288.38
2023-01-29T08:28:22.876Z,101280.91
2023-01-29T08:31:30.528Z,101296.72
2023-01-29T08:34:40.376Z,101287.81
2023-01-29T08:37:54.095Z,101290.66
2023-01-29T08:41:00.361Z,101291.50
2023-01-29T08:44:08.935Z,101304.22
2023-01-29T08:47:17.350Z,101313.38
2023-01-29T08:50:26.059Z,101316.38
2023-01-29T08:53:34.127Z,101338.53
2023-01-29T08:56:44.168Z,101338.91
2023-01-29T08:59:52.225Z,101336.47
2023-01-29T09:02:59.677Z,101342.91
2023-01-29T09:06:06.306Z,101340.00
2023-01-29T09:09:15.936Z,101350.28
2023-01-29T09:12:23.414Z,101344.06
2023-01-29T09:15:30.632Z,101339.78
2023-01-29T09:18:37.547Z,101343.06
2023-01-29T09:21:45.227Z,101327.88
2023-01-29T09:24:53.949Z,101336.72
2023-01-29T09:28:02.062Z,101340.28
2023-01-29T09:31:07.955Z,101336.22
2023-01-29T09:34:15.163Z,101343.59
2023-01-29T09:37:24.441Z,101349.28
2023-01-29T09:40:53.843Z,101358.34
2023-01-29T09:44:05.492Z,101347.03
2023-01-29T09:47:15.515Z,101336.31
2023-01-29T09:50:25.477Z,101355.78
2023-01-29T09:53:39.870Z,101357.78
2023-01-29T09:56:50.748Z,101351.97
2023-01-29T09:59:58.855Z,101359.63
2023-01-29T10:03:25.512Z,101345.41
2023-01-29T10:06:53.789Z,101358.94
2023-01-29T10:10:00.782Z,101351.66
2023-01-29T10:13:25.508Z,101361.72
2023-01-29T10:16:43.551Z,101363.28
2023-01-29T10:19:55.695Z,101361.09
2023-01-29T10:23:20.820Z,101361.00
2023-01-29T10:26:32.259Z,101355.16
2023-01-29T10:29:42.799Z,101353.78
2023-01-29T10:32:52.528Z,101350.78
2023-01-29T10:36:04.292Z,101346.84
2023-01-29T10:39:20.878Z,101348.59
2023-01-29T10:42:41.673Z,101363.63
2023-01-29T10:45:54.407Z,101356.41
2023-01-29T10:49:15.460Z,101351.56
2023-01-29T10:52:41.010Z,101344.09
2023-01-29T10:56:13.977Z,101345.25
2023-01-29T10:59:41.267Z,101338.44
2023-01-29T11:02:50.675Z,101327.03
2023-01-29T11:06:02.059Z,101309.38
2023-01-29T11:09:13.683Z,101316.88
2023-01-29T11:12:22.811Z,101314.16
2023-01-29T11:15:31.047Z,101315.44
2023-01-29T11:19:00.564Z,101311.37
2023-01-29T11:22:06.890Z,101308.44
2023-01-29T11:25:20.551Z,101292.72
2023-01-29T11:28:37.715Z,101283.22
2023-01-29T11:31:45.909Z,101297.16
2023-01-29T11:34:58.114Z,101284.63
2023-01-29T11:38:20.924Z,101281.56
2023-01-29T11:41:26.731Z,101268.41
2023-01-29T11:44:43.861Z,101262.88
2023-01-29T11:47:57.503Z,101264.00
2023-01-29T11:51:06.752Z,101255.56
2023-01-29T11:54:18.450Z,101245.03
2023-01-29T11:57:31.090Z,101245.69
2023-01-29T12:00:42.076Z,101244.06
2023-01-29T12:03:54.061Z,101239.63
2023-01-29T12:06:58.633Z,101245.53
2023-01-29T12:10:06.748Z,101244.94
2023-01-29T12:13:24.083Z,101236.13
2023-01-29T12:16:49.083Z,101232.00
2023-01-29T12:20:00.608Z,101241.25
2023-01-29T12:23:14.057Z,101234.19
2023-01-29T12:26:28.416Z,101227.63
2023-01-29T12:29:42.253Z,101232.50
2023-01-29T12:32:59.674Z,101230.72
2023-01-29T12:36:15.263Z,101216.91
2023-01-29T12:39:20.892Z,101231.56
2023-01-29T12:42:26.884Z,101227.53
2023-01-29T12:45:32.518Z,101233.16
2023-01-29T12:48:41.896Z,101226.37
2023-01-29T12:52:11.231Z,101230.81
2023-01-29T12:55:23.246Z,101228.84
2023-01-29T12:58:30.926Z,101223.16
2023-01-29T13:01:40.345Z,101222.81
2023-01-29T13:04:50.642Z,101220.03
2023-01-29T13:08:04.283Z,101210.59
2023-01-29T13:11:15.215Z,101203.69
2023-01-29T13:14:24.410Z,101199.00
2023-01-29T13:17:34.903Z,101200.16
2023-01-29T13:20:45.716Z,101184.34
2023-01-29T13:24:10.614Z,101181.31
2023-01-29T13:27:29.117Z,101178.25
2023-01-29T13:30:35.535Z,101171.56
2023-01-29T13:33:42.673Z,101174.22
2023-01-29T13:36:53.772Z,101159.47
2023-01-29T13:40:03.244Z,101165.37
2023-01-29T13:43:21.896Z,101175.69
2023-01-29T13:46:29.916Z,101179.94
2023-01-29T13:49:47.788Z,101181.94
2023-01-29T13:53:04.011Z,101189.53
2023-01-29T13:56:31.115Z,101178.34
2023-01-29T13:59:51.444Z,101178.44
2023-01-29T14:02:57.818Z,101173.97
2023-01-29T14:06:05.428Z,101160.19
2023-01-29T14:09:29.911Z,101176.34
2023-01-29T14:12:38.755Z,101188.19
2023-01-29T14:15:47.629Z,101175.06
2023-01-29T14:19:05.694Z,101187.50
2023-01-29T14:22:22.533Z,101190.94
2023-01-29T14:25:34.553Z,101193.41
2023-01-29T14:28:45.201Z,101193.25
2023-01-29T14:31:56.270Z,101191.25
2023-01-29T14:35:06.982Z,101193.84
2023-01-29T14:38:15.961Z,101195.63
2023-01-29T14:41:32.710Z,101204.25
2023-01-29T14:44:52.585Z,101189.41
2023-01-29T14:48:01.961Z,101187.00
2023-01-29T14:51:17.212Z,101194.34
2023-01-29T14:54:27.511Z,101184.59
2023-01-29T14:57:36.448Z,101185.00
2023-01-29T15:00:45.914Z,101196.25
2023-01-29T15:04:02.151Z,101187.94
2023-01-29T15:07:11.164Z,101201.84
2023-01-29T15:10:39.109Z,101194.00
2023-01-29T15:13:50.914Z,101187.13
2023-01-29T15:17:20.006Z,101185.03
2023-01-29T15:20:28.973Z,101183.50
2023-01-29T15:23:40.186Z,101182.50
2023-01-29T15:26:49.309Z,101176.19
2023-01-29T15:29:59.234Z,101162.97
2023-01-29T15:33:14.104Z,101168.87
2023-01-29T15:36:31.148Z,101177.88
2023-01-29T15:39:44.836Z,101178.84
2023-01-29T15:42:55.611Z,101182.63
2023-01-29T15:46:08.283Z,101178.50
2023-01-29T15:49:21.740Z,101183.16
2023-01-29T15:52:31.753Z,101188.69
2023-01-29T15:55:41.008Z,101182.50
2023-01-29T15:58:53.275Z,101182.00
2023-01-29T16:02:00.312Z,101187.34
2023-01-29T16:05:07.924Z,101192.03
2023-01-29T16:08:15.295Z,101184.94
2023-01-29T16:11:21.667Z,101188.97
2023-01-29T16:14:28.779Z,101189.94
2023-01-29T16:17:40.079Z,101195.41
2023-01-29T16:20:51.512Z,101190.94
2023-01-29T16:24:25.679Z,101190.09
2023-01-29T16:27:37.732Z,101202.22
2023-01-29T16:30:45.130Z,101203.09
2023-01-29T16:33:49.869Z,101205.78
2023-01-29T16:36:55.079Z,101212.38
2023-01-29T16:40:01.841Z,101213.47
2023-01-29T16:43:17.702Z,101218.38
2023-01-29T16:46:28.248Z,101218.69
2023-01-29T16:49:38.249Z,101219.53
2023-01-29T16:52:58.644Z,101220.84
2023-01-29T16:56:08.259Z,101221.59
2023-01-29T16:59:43.433Z,101231.28
2023-01-29T17:02:51.929Z,101216.09
2023-01-29T17:05:58.104Z,101226.28
2023-01-29T17:09:06.487Z,101228.19
2023-01-29T17:12:17.925Z,101220.66
2023-01-29T17:15:34.152Z,101224.28
2023-01-29T17:18:39.982Z,101225.00
2023-01-29T17:21:46.341Z,101214.78
2023-01-29T17:24:56.043Z,101219.19
2023-01-29T17:28:06.204Z,101206.22
2023-01-29T17:31:14.184Z,101204.09
2023-01-29T17:34:22.245Z,101199.66
2023-01-29T17:37:29.366Z,101196.22
2023-01-29T17:40:45.203Z,101188.88
2023-01-29T17:43:51.508Z,101191.59
2023-01-29T17:47:00.896Z,101186.00
2023-01-29T17:50:28.015Z,101180.81
2023-01-29T17:53:45.385Z,101183.97
2023-01-29T17:56:59.940Z,101182.41
2023-01-29T18:00:15.411Z,101176.16
2023-01-29T18:03:27.584Z,101165.19
2023-01-29T18:06:38.440Z,101170.44
2023-01-29T18:09:50.524Z,101167.91
2023-01-29T18:12:58.458Z,101165.31
2023-01-29T18:16:07.183Z,101159.47
2023-01-29T18:19:24.206Z,101166.59
2023-01-29T18:22:32.160Z,101166.47
2023-01-29T18:25:39.771Z,101162.75
2023-01-29T18:28:54.801Z,101156.53
2023-01-29T18:32:00.722Z,101147.97
2023-01-29T18:35:08.496Z,101155.94
2023-01-29T18:38:13.941Z,101151.00
2023-01-29T18:41:19.591Z,101150.22
2023-01-29T18:44:24.079Z,101146.53
2023-01-29T18:47:29.432Z,101149.25
2023-01-29T18:50:34.963Z,101152.59
2023-01-29T18:53:42.926Z,101151.19
2023-01-29T18:57:11.519Z,101151.28
2023-01-29T19:00:19.298Z,101144.88
2023-01-29T19:03:25.933Z,101150.47
2023-01-29T19:06:36.136Z,101159.22
2023-01-29T19:09:49.230Z,101160.19
2023-01-29T19:12:56.243Z,101153.31
2023-01-29T19:16:04.779Z,101150.00
2023-01-29T19:19:12.507Z,101149.91
2023-01-29T19:22:18.083Z,101139.69
2023-01-29T19:25:24.490Z,101150.12
2023-01-29T19:28:29.829Z,101144.72
2023-01-29T19:31:36.647Z,101148.06
2023-01-29T19:34:42.505Z,101148.53
2023-01-29T19:37:53.470Z,101145.63
2023-01-29T19:41:02.004Z,101141.66
2023-01-29T19:44:12.238Z,101132.47
2023-01-29T19:47:20.573Z,101128.13
2023-01-29T19:50:28.056Z,101131.56
2023-01-29T19:53:33.506Z,101130.38
2023-01-29T19:56:39.697Z,101134.03
2023-01-29T19:59:48.233Z,101141.78
2023-01-29T20:02:54.194Z,101140.25
2023-01-29T20:06:04.858Z,101140.44
2023-01-29T20:09:12.649Z,101142.34
2023-01-29T20:12:20.530Z,101137.09
2023-01-29T20:15:28.033Z,101130.44
2023-01-29T20:18:36.126Z,101141.13
2023-01-29T20:21:45.843Z,101131.34
2023-01-29T20:24:51.411Z,101117.38
2023-01-29T20:27:56.830Z,101111.28
2023-01-29T20:31:01.333Z,101110.84
2023-01-29T20:34:05.078Z,101113.31
2023-01-29T20:37:11.834Z,101105.53
2023-01-29T20:40:18.451Z,101114.22
2023-01-29T20:43:23.572Z,101112.59
2023-01-29T20:46:30.538Z,101098.84
2023-01-29T20:49:37.073Z,101107.38
2023-01-29T20:52:45.034Z,101112.22
2023-01-29T20:55:51.344Z,101110.81
2023-01-29T20:58:58.593Z,101116.03
2023-01-29T21:02:03.676Z,101120.34
2023-01-29T21:05:08.837Z,101118.59
2023-01-29T21:08:14.084Z,101112.75
2023-01-29T21:11:20.777Z,101125.09
2023-01-29T21:14:29.291Z,101119.72
2023-01-29T21:17:35.890Z,101129.38
2023-01-29T21:20:43.359Z,101133.72
2023-01-29T21:23:50.741Z,101139.00
2023-01-29T21:26:58.948Z,101143.06
2023-01-29T21:30:06.047Z,101145.53
2023-01-29T21:33:13.574Z,101144.00
2023-01-29T21:36:21.199Z,101140.53
2023-01-29T21:39:29.177Z,101136.31
2023-01-29T21:42:54.412Z,101139.38
2023-01-29T21:46:07.965Z,101136.69
2023-01-29T21:49:21.028Z,101138.44
2023-01-29T21:52:31.667Z,101139.31
2023-01-29T21:55:40.594Z,101134.31
2023-01-29T21:58:52.788Z,101131.72
2023-01-29T22:02:01.661Z,101124.44
2023-01-29T22:05:18.856Z,101119.78
2023-01-29T22:08:25.289Z,101108.03
2023-01-29T22:11:35.146Z,101117.56
2023-01-29T22:14:43.516Z,101111.44
2023-01-29T22:17:51.974Z,101103.75
2023-01-29T22:21:02.328Z,101099.03
2023-01-29T22:24:08.060Z,101098.97
2023-01-29T22:27:15.675Z,101082.31
2023-01-29T22:30:24.492Z,101089.69
2023-01-29T22:33:34.843Z,101085.03
2023-01-29T22:36:43.549Z,101072.19
2023-01-29T22:39:48.386Z,101068.94
2023-01-29T22:42:56.180Z,101074.53
2023-01-29T22:46:08.012Z,101064.22
2023-01-29T22:49:15.699Z,101060.87
2023-01-29T22:52:22.386Z,101065.25
2023-01-29T22:55:28.362Z,101054.94
2023-01-29T22:58:35.801Z,101057.28
2023-01-29T23:01:42.989Z,101052.75
2023-01-29T23:04:47.589Z,101056.44
2023-01-29T23:07:53.793Z,101052.94
2023-01-29T23:11:15.718Z,101048.59
2023-01-29T23:14:29.701Z,101058.06
2023-01-29T23:17:37.631Z,101042.88
2023-01-29T23:20:45.847Z,101044.66
2023-01-29T23:23:53.387Z,101049.28
2023-01-29T23:27:16.102Z,101043.72
2023-01-29T23:30:21.303Z,101034.31
2023-01-29T23:33:27.601Z,101031.91
2023-01-29T23:36:33.074Z,101030.28
2023-01-29T23:39:38.541Z,101036.31
2023-01-29T23:42:44.530Z,101019.06
2023-01-29T23:45:52.924Z,101016.75
2023-01-29T23:48:59.325Z,101015.53
2023-01-29T23:52:09.086Z,101013.41
2023-01-29T23:55:18.061Z,101010.13
2023-01-29T23:58:26.261Z,101012.63
